createdAt,value
2017-10-06T00:00:45.056Z,5.6
2017-10-06T00:01:46.677Z,5.2
2017-10-06T00:02:48.294Z,7.8
2017-10-06T00:03:49.913Z,6.0
2017-10-06T00:04:51.534Z,3.6
2017-10-06T00:05:53.154Z,4.4
2017-10-06T00:06:54.788Z,5.2
2017-10-06T00:07:56.408Z,4.0
2017-10-06T00:08:58.027Z,6.1
2017-10-06T00:09:59.647Z,3.4
2017-10-06T00:11:01.267Z,3.1
2017-10-06T00:12:02.888Z,3.7
2017-10-06T00:13:04.508Z,6.6
2017-10-06T00:14:06.127Z,4.3
2017-10-06T00:15:07.746Z,5.0
2017-10-06T00:16:09.364Z,3.2
2017-10-06T00:17:10.983Z,4.9
2017-10-06T00:18:12.605Z,3.7
2017-10-06T00:19:14.228Z,6.4
2017-10-06T00:20:15.845Z,4.6
2017-10-06T00:21:17.463Z,4.2
2017-10-06T00:22:19.083Z,4.8
2017-10-06T00:23:20.700Z,2.6
2017-10-06T00:24:22.320Z,3.7
2017-10-06T00:25:23.953Z,5.0
2017-10-06T00:26:25.561Z,3.1
2017-10-06T00:27:27.182Z,4.2
2017-10-06T00:28:28.802Z,3.9
2017-10-06T00:29:30.423Z,4.3
2017-10-06T00:30:32.041Z,2.9
2017-10-06T00:31:33.661Z,3.2
2017-10-06T00:32:35.284Z,5.6
2017-10-06T00:33:36.899Z,3.9
2017-10-06T00:34:38.520Z,4.9
2017-10-06T00:35:40.140Z,2.9
2017-10-06T00:36:41.760Z,4.2
2017-10-06T00:37:43.379Z,4.8
2017-10-06T00:38:44.999Z,5.4
2017-10-06T00:39:46.620Z,2.6
2017-10-06T00:40:48.240Z,6.2
2017-10-06T00:41:49.861Z,5.0
2017-10-06T00:42:51.479Z,5.3
2017-10-06T00:43:53.096Z,4.1
2017-10-06T00:44:54.713Z,3.0
2017-10-06T00:45:56.334Z,3.5
2017-10-06T00:46:57.955Z,7.8
2017-10-06T00:47:59.575Z,4.6
2017-10-06T00:49:01.196Z,6.6
2017-10-06T00:50:02.813Z,5.0
2017-10-06T00:51:04.430Z,5.7
2017-10-06T00:52:06.049Z,3.3
2017-10-06T00:53:07.669Z,5.2
2017-10-06T00:54:09.291Z,5.4
2017-10-06T00:55:10.911Z,3.1
2017-10-06T00:56:12.532Z,4.3
2017-10-06T00:57:14.149Z,4.9
2017-10-06T00:58:15.766Z,3.4
2017-10-06T00:59:17.385Z,3.5
2017-10-06T01:00:19.007Z,3.4
2017-10-06T01:01:20.627Z,4.0
2017-10-06T01:02:22.248Z,4.5
2017-10-06T01:03:23.869Z,3.7
2017-10-06T01:04:25.488Z,4.2
2017-10-06T01:05:27.105Z,3.8
2017-10-06T01:06:28.725Z,3.7
2017-10-06T01:07:30.344Z,7.0
2017-10-06T01:08:31.964Z,6.5
2017-10-06T01:09:33.581Z,7.2
2017-10-06T01:10:35.231Z,4.8
2017-10-06T01:11:36.825Z,4.4
2017-10-06T01:12:38.442Z,6.2
2017-10-06T01:13:40.064Z,6.3
2017-10-06T01:14:41.679Z,4.5
2017-10-06T01:15:43.299Z,4.3
2017-10-06T01:16:44.919Z,4.8
2017-10-06T01:17:46.539Z,3.3
2017-10-06T01:18:48.159Z,6.4
2017-10-06T01:19:49.775Z,5.6
2017-10-06T01:20:51.394Z,3.8
2017-10-06T01:21:53.014Z,2.0
2017-10-06T01:22:54.632Z,6.5
2017-10-06T01:23:56.252Z,4.4
2017-10-06T01:24:57.874Z,4.8
2017-10-06T01:25:59.492Z,3.1
2017-10-06T01:27:01.111Z,4.6
2017-10-06T01:28:02.729Z,3.5
2017-10-06T01:29:04.347Z,2.7
2017-10-06T01:30:05.968Z,6.3
2017-10-06T01:31:07.589Z,2.8
2017-10-06T01:32:09.211Z,3.6
2017-10-06T01:33:10.827Z,3.9
2017-10-06T01:34:12.450Z,4.1
2017-10-06T01:35:14.066Z,5.7
2017-10-06T01:36:15.685Z,3.9
2017-10-06T01:37:17.303Z,5.0
2017-10-06T01:38:18.926Z,4.2
2017-10-06T01:39:20.546Z,4.8
2017-10-06T01:40:22.162Z,5.6
2017-10-06T01:41:23.781Z,4.0
2017-10-06T01:42:25.405Z,4.8
2017-10-06T01:43:27.021Z,5.4
2017-10-06T01:44:28.639Z,3.5
2017-10-06T01:45:30.262Z,4.9
2017-10-06T01:46:31.880Z,3.2
2017-10-06T01:47:33.497Z,4.4
2017-10-06T01:48:35.117Z,6.5
2017-10-06T01:49:36.737Z,3.2
2017-10-06T01:50:38.356Z,7.7
2017-10-06T01:51:39.976Z,4.3
2017-10-06T01:52:41.598Z,5.7
2017-10-06T01:53:43.217Z,5.7
2017-10-06T01:54:44.835Z,4.4
2017-10-06T01:55:46.454Z,7.1
2017-10-06T01:56:48.075Z,7.1
2017-10-06T01:57:49.695Z,5.0
2017-10-06T01:58:51.312Z,7.9
2017-10-06T01:59:52.932Z,6.2
2017-10-06T02:00:54.554Z,3.6
2017-10-06T02:01:56.177Z,7.3
2017-10-06T02:02:57.792Z,4.0
2017-10-06T02:03:59.413Z,5.1
2017-10-06T02:05:01.030Z,6.8
2017-10-06T02:06:02.652Z,6.2
2017-10-06T02:07:04.269Z,5.6
2017-10-06T02:08:05.891Z,5.5
2017-10-06T02:09:07.508Z,5.3
2017-10-06T02:10:09.128Z,5.1
2017-10-06T02:11:10.747Z,6.4
2017-10-06T02:12:12.365Z,6.1
2017-10-06T02:13:13.988Z,6.2
2017-10-06T02:14:15.606Z,4.1
2017-10-06T02:15:17.232Z,7.3
2017-10-06T02:16:18.844Z,5.8
2017-10-06T02:17:20.465Z,5.7
2017-10-06T02:18:22.084Z,5.1
2017-10-06T02:19:23.701Z,7.6
2017-10-06T02:20:25.325Z,6.4
2017-10-06T02:21:26.944Z,6.7
2017-10-06T02:22:28.564Z,7.1
2017-10-06T02:23:30.183Z,5.8
2017-10-06T02:24:31.804Z,4.6
2017-10-06T02:25:33.421Z,5.2
2017-10-06T02:26:35.043Z,7.6
2017-10-06T02:27:36.667Z,2.6
2017-10-06T02:28:38.287Z,6.0
2017-10-06T02:29:39.907Z,5.4
2017-10-06T02:30:41.527Z,2.7
2017-10-06T02:31:43.148Z,3.1
2017-10-06T02:32:44.766Z,5.1
2017-10-06T02:33:46.388Z,3.7
2017-10-06T02:34:48.009Z,4.9
2017-10-06T02:35:49.625Z,3.6
2017-10-06T02:36:51.247Z,3.8
2017-10-06T02:37:52.863Z,5.4
2017-10-06T02:38:54.485Z,6.4
2017-10-06T02:39:56.103Z,4.9
2017-10-06T02:40:57.723Z,3.5
2017-10-06T02:41:59.340Z,5.9
2017-10-06T02:43:00.960Z,3.2
2017-10-06T02:44:02.581Z,4.6
2017-10-06T02:45:04.200Z,3.2
2017-10-06T02:46:05.818Z,8.0
2017-10-06T02:47:07.437Z,5.3
2017-10-06T02:48:09.055Z,5.2
2017-10-06T02:49:10.674Z,7.4
2017-10-06T02:50:12.295Z,4.5
2017-10-06T02:51:13.925Z,5.7
2017-10-06T02:52:15.533Z,5.5
2017-10-06T02:53:17.152Z,7.2
2017-10-06T02:54:18.769Z,4.0
2017-10-06T02:55:20.389Z,8.0
2017-10-06T02:56:22.010Z,4.8
2017-10-06T02:57:23.631Z,6.9
2017-10-06T02:58:25.257Z,7.3
2017-10-06T02:59:26.874Z,5.2
2017-10-06T03:00:28.493Z,3.8
2017-10-06T03:01:30.112Z,7.3
2017-10-06T03:02:31.731Z,8.7
2017-10-06T03:03:33.351Z,3.5
2017-10-06T03:04:34.971Z,6.2
2017-10-06T03:05:36.596Z,4.3
2017-10-06T03:06:38.212Z,5.9
2017-10-06T03:07:39.829Z,7.3
2017-10-06T03:08:41.456Z,4.9
2017-10-06T03:09:43.068Z,8.3
2017-10-06T03:10:44.689Z,5.9
2017-10-06T03:11:46.308Z,6.5
2017-10-06T03:12:47.927Z,6.3
2017-10-06T03:13:49.544Z,9.0
2017-10-06T03:14:51.163Z,4.9
2017-10-06T03:15:52.780Z,7.0
2017-10-06T03:16:54.398Z,6.6
2017-10-06T03:17:56.024Z,5.9
2017-10-06T03:18:57.644Z,7.4
2017-10-06T03:19:59.264Z,8.7
2017-10-06T03:21:00.881Z,6.0
2017-10-06T03:22:02.502Z,9.0
2017-10-06T03:23:04.123Z,8.9
2017-10-06T03:24:05.742Z,8.3
2017-10-06T03:25:07.364Z,9.0
2017-10-06T03:26:08.985Z,7.0
2017-10-06T03:27:10.606Z,8.4
2017-10-06T03:28:12.219Z,7.1
2017-10-06T03:29:13.839Z,13.3
2017-10-06T03:30:15.462Z,10.1
2017-10-06T03:31:17.082Z,11.3
2017-10-06T03:32:18.700Z,8.8
2017-10-06T03:33:20.322Z,7.6
2017-10-06T03:34:21.945Z,11.1
2017-10-06T03:35:23.561Z,8.0
2017-10-06T03:36:25.183Z,9.9
2017-10-06T03:37:26.804Z,11.1
2017-10-06T03:38:28.423Z,10.4
2017-10-06T03:39:30.050Z,9.9
2017-10-06T03:40:31.668Z,10.2
2017-10-06T03:41:33.291Z,12.2
2017-10-06T03:42:34.910Z,9.7
2017-10-06T03:43:36.530Z,14.6
2017-10-06T03:44:38.149Z,10.5
2017-10-06T03:45:39.772Z,10.0
2017-10-06T03:46:41.390Z,9.9
2017-10-06T03:47:43.010Z,9.0
2017-10-06T03:48:44.634Z,11.8
2017-10-06T03:49:46.249Z,11.5
2017-10-06T03:50:47.868Z,12.2
2017-10-06T03:51:49.489Z,14.4
2017-10-06T03:52:51.111Z,14.6
2017-10-06T03:53:52.738Z,12.7
2017-10-06T03:54:54.357Z,15.5
2017-10-06T03:55:55.980Z,15.2
2017-10-06T03:56:57.598Z,15.6
2017-10-06T03:57:59.218Z,17.0
2017-10-06T03:59:00.841Z,18.2
2017-10-06T04:00:02.464Z,18.9
2017-10-06T04:01:04.083Z,16.7
2017-10-06T04:02:05.707Z,17.7
2017-10-06T04:03:07.329Z,18.8
2017-10-06T04:04:08.949Z,18.8
2017-10-06T04:05:10.568Z,17.1
2017-10-06T04:06:12.189Z,17.1
2017-10-06T04:07:13.808Z,19.7
2017-10-06T04:08:15.433Z,18.2
2017-10-06T04:09:17.051Z,15.6
2017-10-06T04:10:18.676Z,18.7
2017-10-06T04:11:20.296Z,16.7
2017-10-06T04:12:21.917Z,12.1
2017-10-06T04:13:23.538Z,16.0
2017-10-06T04:14:25.161Z,13.9
2017-10-06T04:15:26.781Z,15.7
2017-10-06T04:16:28.404Z,12.0
2017-10-06T04:17:30.024Z,10.9
2017-10-06T04:18:31.647Z,10.6
2017-10-06T04:19:33.265Z,11.3
2017-10-06T04:20:34.883Z,13.1
2017-10-06T04:21:36.503Z,12.0
2017-10-06T04:22:38.124Z,11.0
2017-10-06T04:23:39.747Z,11.1
2017-10-06T04:24:41.366Z,11.0
2017-10-06T04:25:42.985Z,10.5
2017-10-06T04:26:44.607Z,9.1
2017-10-06T04:27:46.257Z,11.1
2017-10-06T04:28:47.854Z,8.3
2017-10-06T04:29:49.477Z,11.5
2017-10-06T04:30:51.097Z,9.3
2017-10-06T04:31:52.722Z,11.0
2017-10-06T04:32:54.340Z,12.2
2017-10-06T04:33:55.961Z,10.9
2017-10-06T04:34:57.585Z,10.2
2017-10-06T04:35:59.203Z,8.7
2017-10-06T04:37:00.825Z,11.1
2017-10-06T04:38:02.449Z,7.5
2017-10-06T04:39:04.069Z,7.9
2017-10-06T04:40:05.688Z,6.7
2017-10-06T04:41:07.308Z,7.5
2017-10-06T04:42:08.935Z,11.0
2017-10-06T04:43:10.549Z,4.8
2017-10-06T04:44:12.171Z,6.5
2017-10-06T04:45:13.793Z,8.5
2017-10-06T04:46:15.414Z,6.0
2017-10-06T04:47:17.030Z,6.3
2017-10-06T04:48:18.653Z,7.2
2017-10-06T04:49:20.273Z,8.3
2017-10-06T04:50:21.893Z,7.4
2017-10-06T04:51:23.515Z,7.3
2017-10-06T04:52:25.137Z,8.4
2017-10-06T04:53:26.759Z,10.3
2017-10-06T04:54:28.399Z,8.5
2017-10-06T04:55:29.999Z,7.0
2017-10-06T04:56:31.617Z,11.3
2017-10-06T04:57:33.237Z,8.9
2017-10-06T04:58:34.857Z,10.4
2017-10-06T04:59:36.478Z,8.9
2017-10-06T05:00:38.104Z,10.0
2017-10-06T05:01:39.721Z,8.0
2017-10-06T05:02:41.339Z,9.2
2017-10-06T05:03:42.961Z,8.9
2017-10-06T05:04:44.579Z,9.4
2017-10-06T05:05:46.200Z,9.2
2017-10-06T05:06:47.820Z,7.4
2017-10-06T05:07:49.443Z,10.2
2017-10-06T05:08:51.061Z,6.5
2017-10-06T05:09:52.681Z,6.6
2017-10-06T05:10:54.303Z,7.5
2017-10-06T05:11:55.923Z,10.5
2017-10-06T05:12:57.544Z,10.2
2017-10-06T05:13:59.168Z,6.7
2017-10-06T05:15:00.789Z,10.8
2017-10-06T05:16:02.410Z,6.9
2017-10-06T05:17:04.032Z,6.0
2017-10-06T05:18:05.648Z,8.2
2017-10-06T05:19:07.266Z,5.9
2017-10-06T05:20:08.889Z,7.9
2017-10-06T05:21:10.511Z,11.4
2017-10-06T05:22:12.135Z,6.1
2017-10-06T05:23:13.754Z,4.6
2017-10-06T05:24:15.373Z,5.7
2017-10-06T05:25:16.993Z,7.5
2017-10-06T05:26:18.613Z,10.2
2017-10-06T05:27:20.237Z,6.4
2017-10-06T05:28:21.858Z,7.7
2017-10-06T05:29:23.481Z,5.8
2017-10-06T05:30:25.099Z,6.8
2017-10-06T05:31:26.721Z,6.5
2017-10-06T05:32:28.341Z,6.1
2017-10-06T05:33:29.963Z,5.0
2017-10-06T05:34:31.584Z,6.7
2017-10-06T05:35:33.209Z,7.0
2017-10-06T05:36:34.835Z,6.5
2017-10-06T05:37:36.456Z,6.9
2017-10-06T05:38:38.076Z,6.9
2017-10-06T05:39:39.699Z,5.1
2017-10-06T05:40:41.322Z,6.7
2017-10-06T05:41:42.944Z,6.4
2017-10-06T05:42:44.565Z,5.3
2017-10-06T05:43:46.190Z,7.8
2017-10-06T05:44:47.811Z,6.8
2017-10-06T05:45:49.433Z,5.8
2017-10-06T05:46:51.057Z,5.6
2017-10-06T05:47:52.679Z,5.8
2017-10-06T05:48:54.302Z,5.3
2017-10-06T05:49:55.925Z,7.9
2017-10-06T05:50:57.553Z,4.5
2017-10-06T05:51:59.175Z,8.7
2017-10-06T05:53:00.797Z,4.1
2017-10-06T05:54:02.418Z,7.0
2017-10-06T05:55:04.044Z,5.3
2017-10-06T05:56:05.666Z,6.1
2017-10-06T05:57:07.291Z,5.5
2017-10-06T05:58:08.916Z,9.4
2017-10-06T05:59:10.538Z,5.9
2017-10-06T06:00:12.164Z,6.8
2017-10-06T06:01:13.785Z,6.8
2017-10-06T06:02:15.408Z,6.4
2017-10-06T06:03:17.031Z,8.4
2017-10-06T06:04:18.656Z,7.6
2017-10-06T06:05:20.283Z,7.1
2017-10-06T06:06:21.908Z,6.9
2017-10-06T06:07:23.526Z,7.0
2017-10-06T06:08:25.148Z,6.6
2017-10-06T06:09:26.772Z,7.0
2017-10-06T06:10:28.399Z,13.6
2017-10-06T06:11:30.023Z,8.6
2017-10-06T06:12:31.650Z,6.2
2017-10-06T06:13:33.272Z,9.8
2017-10-06T06:14:34.898Z,11.1
2017-10-06T06:15:36.520Z,12.1
2017-10-06T06:16:38.151Z,10.6
2017-10-06T06:17:39.779Z,15.7
2017-10-06T06:18:41.402Z,10.9
2017-10-06T06:19:43.031Z,11.3
2017-10-06T06:20:44.653Z,7.5
2017-10-06T06:21:46.280Z,10.3
2017-10-06T06:22:47.900Z,10.0
2017-10-06T06:23:49.524Z,8.1
2017-10-06T06:24:51.149Z,9.1
2017-10-06T06:25:52.776Z,10.2
2017-10-06T06:26:54.400Z,5.8
2017-10-06T06:27:56.019Z,7.2
2017-10-06T06:28:57.640Z,6.4
2017-10-06T06:29:59.267Z,7.8
2017-10-06T06:31:00.889Z,8.3
2017-10-06T06:32:02.511Z,10.0
2017-10-06T06:33:04.136Z,4.2
2017-10-06T06:34:05.762Z,7.6
2017-10-06T06:35:07.385Z,5.3
2017-10-06T06:36:09.010Z,6.6
2017-10-06T06:37:10.633Z,7.0
2017-10-06T06:38:12.258Z,7.8
2017-10-06T06:39:13.884Z,6.0
2017-10-06T06:40:15.508Z,8.0
2017-10-06T06:41:17.132Z,5.4
2017-10-06T06:42:18.755Z,6.6
2017-10-06T06:43:20.382Z,5.3
2017-10-06T06:44:22.003Z,6.0
2017-10-06T06:45:23.628Z,3.9
2017-10-06T06:46:25.255Z,5.7
2017-10-06T06:47:26.882Z,6.0
2017-10-06T06:48:28.509Z,7.3
2017-10-06T06:49:30.129Z,5.2
2017-10-06T06:50:31.754Z,4.6
2017-10-06T06:51:33.378Z,6.3
2017-10-06T06:52:35.005Z,2.5
2017-10-06T06:53:36.633Z,4.5
2017-10-06T06:54:38.261Z,13.3
2017-10-06T06:55:39.887Z,6.9
2017-10-06T06:56:41.518Z,6.5
2017-10-06T06:57:43.134Z,4.4
2017-10-06T06:58:44.758Z,5.0
2017-10-06T06:59:46.385Z,4.0
2017-10-06T07:00:48.010Z,5.8
2017-10-06T07:01:49.697Z,3.3
2017-10-06T07:02:51.322Z,6.1
2017-10-06T07:03:52.947Z,6.3
2017-10-06T07:04:54.571Z,3.4
2017-10-06T07:05:56.195Z,5.5
2017-10-06T07:06:57.822Z,6.8
2017-10-06T07:07:59.461Z,5.0
2017-10-06T07:09:01.088Z,3.4
2017-10-06T07:10:02.830Z,7.3
2017-10-06T07:11:04.454Z,6.9
2017-10-06T07:12:06.078Z,4.4
2017-10-06T07:13:07.728Z,5.2
2017-10-06T07:14:09.354Z,5.4
2017-10-06T07:15:10.981Z,5.5
2017-10-06T07:16:12.607Z,7.3
2017-10-06T07:17:14.232Z,8.8
2017-10-06T07:18:15.858Z,4.2
2017-10-06T07:19:17.481Z,7.4
2017-10-06T07:20:19.103Z,6.0
2017-10-06T07:21:20.731Z,5.6
2017-10-06T07:22:22.358Z,7.9
2017-10-06T07:23:23.985Z,7.2
2017-10-06T07:24:25.612Z,5.4
2017-10-06T07:25:27.262Z,6.4
2017-10-06T07:26:28.895Z,5.9
2017-10-06T07:27:30.516Z,7.0
2017-10-06T07:28:32.141Z,4.6
2017-10-06T07:29:33.765Z,8.6
2017-10-06T07:30:35.390Z,6.2
2017-10-06T07:31:37.019Z,5.8
2017-10-06T07:32:38.640Z,6.4
2017-10-06T07:33:40.267Z,9.7
2017-10-06T07:34:41.891Z,6.3
2017-10-06T07:35:43.517Z,6.9
2017-10-06T07:36:45.144Z,9.0
2017-10-06T07:37:46.769Z,9.6
2017-10-06T07:38:48.399Z,5.3
2017-10-06T07:39:50.021Z,5.7
2017-10-06T07:40:51.648Z,6.9
2017-10-06T07:41:53.274Z,5.7
2017-10-06T07:42:54.899Z,10.2
2017-10-06T07:43:56.524Z,7.0
2017-10-06T07:44:58.152Z,12.4
2017-10-06T07:45:59.778Z,9.1
2017-10-06T07:47:01.401Z,8.4
2017-10-06T07:48:03.025Z,8.0
2017-10-06T07:49:04.648Z,8.9
2017-10-06T07:50:06.273Z,7.3
2017-10-06T07:51:07.900Z,6.5
2017-10-06T07:52:09.529Z,8.9
2017-10-06T07:53:11.157Z,8.0
2017-10-06T07:54:12.783Z,10.5
2017-10-06T07:55:14.411Z,8.5
2017-10-06T07:56:16.037Z,10.4
2017-10-06T07:57:17.664Z,9.9
2017-10-06T07:58:19.289Z,6.5
2017-10-06T07:59:20.920Z,8.9
2017-10-06T08:00:22.543Z,8.1
2017-10-06T08:01:24.166Z,8.3
2017-10-06T08:02:25.793Z,6.4
2017-10-06T08:03:27.417Z,7.3
2017-10-06T08:04:29.046Z,8.5
2017-10-06T08:05:30.668Z,5.7
2017-10-06T08:06:32.297Z,7.5
2017-10-06T08:07:33.921Z,5.2
2017-10-06T08:08:35.544Z,8.7
2017-10-06T08:09:37.166Z,6.7
2017-10-06T08:10:38.800Z,8.3
2017-10-06T08:11:40.428Z,6.3
2017-10-06T08:12:42.053Z,8.3
2017-10-06T08:13:43.677Z,5.8
2017-10-06T08:14:45.306Z,7.9
2017-10-06T08:15:46.935Z,4.6
2017-10-06T08:16:48.561Z,5.1
2017-10-06T08:17:50.185Z,5.0
2017-10-06T08:18:51.811Z,6.8
2017-10-06T08:19:53.437Z,4.4
2017-10-06T08:20:55.064Z,7.8
2017-10-06T08:21:56.690Z,7.2
2017-10-06T08:22:58.315Z,7.9
2017-10-06T08:23:59.940Z,4.7
2017-10-06T08:25:01.565Z,7.2
2017-10-06T08:26:03.187Z,7.6
2017-10-06T08:27:04.818Z,6.1
2017-10-06T08:28:06.441Z,5.2
2017-10-06T08:29:08.076Z,7.6
2017-10-06T08:30:09.694Z,3.8
2017-10-06T08:31:11.319Z,7.0
2017-10-06T08:32:12.942Z,7.0
2017-10-06T08:33:14.566Z,8.7
2017-10-06T08:34:16.194Z,6.4
2017-10-06T08:35:17.819Z,5.6
2017-10-06T08:36:19.445Z,6.7
2017-10-06T08:37:21.070Z,8.2
2017-10-06T08:38:22.693Z,4.4
2017-10-06T08:39:24.319Z,4.7
2017-10-06T08:40:25.941Z,3.4
2017-10-06T08:41:27.565Z,3.7
2017-10-06T08:42:29.190Z,6.9
2017-10-06T08:43:30.876Z,3.0
2017-10-06T08:44:32.498Z,4.3
2017-10-06T08:45:34.115Z,7.6
2017-10-06T08:46:35.750Z,3.9
2017-10-06T08:47:37.373Z,4.4
2017-10-06T08:48:39.000Z,5.2
2017-10-06T08:49:40.626Z,4.6
2017-10-06T08:50:42.252Z,5.9
2017-10-06T08:51:43.875Z,3.6
2017-10-06T08:52:45.500Z,7.5
2017-10-06T08:53:47.124Z,9.4
2017-10-06T08:54:48.749Z,7.0
2017-10-06T08:55:50.373Z,6.2
2017-10-06T08:56:52.015Z,8.6
2017-10-06T08:57:53.643Z,4.6
2017-10-06T08:58:55.265Z,3.8
2017-10-06T08:59:56.894Z,6.3
2017-10-06T09:00:58.520Z,6.0
2017-10-06T09:02:00.145Z,7.1
2017-10-06T09:03:01.771Z,3.7
2017-10-06T09:04:03.395Z,5.7
2017-10-06T09:05:05.023Z,8.2
2017-10-06T09:06:06.647Z,4.8
2017-10-06T09:07:08.271Z,3.4
2017-10-06T09:08:09.895Z,5.4
2017-10-06T09:09:11.520Z,3.9
2017-10-06T09:10:13.146Z,4.1
2017-10-06T09:11:14.771Z,3.6
2017-10-06T09:12:16.399Z,7.7
2017-10-06T09:13:18.024Z,5.3
2017-10-06T09:14:19.660Z,6.4
2017-10-06T09:15:21.274Z,5.1
2017-10-06T09:16:22.899Z,5.5
2017-10-06T09:17:24.528Z,2.6
2017-10-06T09:18:26.153Z,3.1
2017-10-06T09:19:27.781Z,4.7
2017-10-06T09:20:29.405Z,4.8
2017-10-06T09:21:31.030Z,3.7
2017-10-06T09:22:32.653Z,4.4
2017-10-06T09:23:34.277Z,3.9
2017-10-06T09:24:35.905Z,5.7
2017-10-06T09:25:37.532Z,3.5
2017-10-06T09:26:39.157Z,3.7
2017-10-06T09:27:40.781Z,3.4
2017-10-06T09:28:42.404Z,3.1
2017-10-06T09:29:44.030Z,4.1
2017-10-06T09:30:45.655Z,3.1
2017-10-06T09:31:47.281Z,2.4
2017-10-06T09:32:48.907Z,5.8
2017-10-06T09:33:50.532Z,4.1
2017-10-06T09:34:52.158Z,4.4
2017-10-06T09:35:53.788Z,3.1
2017-10-06T09:36:55.411Z,4.1
2017-10-06T09:37:57.034Z,3.7
2017-10-06T09:38:58.662Z,5.2
2017-10-06T09:40:00.291Z,2.3
2017-10-06T09:41:01.917Z,3.8
2017-10-06T09:42:03.541Z,5.4
2017-10-06T09:43:05.166Z,3.0
2017-10-06T09:44:06.794Z,2.9
2017-10-06T09:45:08.418Z,3.5
2017-10-06T09:46:10.045Z,4.7
2017-10-06T09:47:11.673Z,3.2
2017-10-06T09:48:13.301Z,2.8
2017-10-06T09:49:14.926Z,4.5
2017-10-06T09:50:16.551Z,2.6
2017-10-06T09:51:18.175Z,1.7
2017-10-06T09:52:19.798Z,3.7
2017-10-06T09:53:21.427Z,3.6
2017-10-06T09:54:23.056Z,3.1
2017-10-06T09:55:24.683Z,3.8
2017-10-06T09:56:26.308Z,5.0
2017-10-06T09:57:27.933Z,3.3
2017-10-06T09:58:29.559Z,2.9
2017-10-06T09:59:31.182Z,3.6
2017-10-06T10:00:32.810Z,2.8
2017-10-06T10:01:34.443Z,2.6
2017-10-06T10:02:36.064Z,4.1
2017-10-06T10:03:37.687Z,3.0
2017-10-06T10:04:39.315Z,3.8
2017-10-06T10:05:40.937Z,2.7
2017-10-06T10:06:42.562Z,4.8
2017-10-06T10:07:44.188Z,4.6
2017-10-06T10:08:45.817Z,4.9
2017-10-06T10:09:47.442Z,3.4
2017-10-06T10:10:49.067Z,5.3
2017-10-06T10:11:50.691Z,3.5
2017-10-06T10:12:52.319Z,6.3
2017-10-06T10:13:53.944Z,3.3
2017-10-06T10:14:55.571Z,2.8
2017-10-06T10:15:57.198Z,2.0
2017-10-06T10:16:58.826Z,2.1
2017-10-06T10:18:00.451Z,4.4
2017-10-06T10:19:02.077Z,2.2
2017-10-06T10:20:03.703Z,2.0
2017-10-06T10:21:05.342Z,3.6
2017-10-06T10:22:06.973Z,2.4
2017-10-06T10:23:08.596Z,3.7
2017-10-06T10:24:10.225Z,6.0
2017-10-06T10:25:11.850Z,5.5
2017-10-06T10:26:13.473Z,4.1
2017-10-06T10:27:15.098Z,2.9
2017-10-06T10:28:16.722Z,5.2
2017-10-06T10:29:18.350Z,3.1
2017-10-06T10:30:19.976Z,3.6
2017-10-06T10:31:21.605Z,2.9
2017-10-06T10:32:23.229Z,3.1
2017-10-06T10:33:24.852Z,4.9
2017-10-06T10:34:26.477Z,3.8
2017-10-06T10:35:28.103Z,5.5
2017-10-06T10:36:29.730Z,3.2
2017-10-06T10:37:31.357Z,2.7
2017-10-06T10:38:32.983Z,4.1
2017-10-06T10:39:34.608Z,5.8
2017-10-06T10:40:36.235Z,4.0
2017-10-06T10:41:37.862Z,5.0
2017-10-06T10:42:39.489Z,3.7
2017-10-06T10:43:41.119Z,3.1
2017-10-06T10:44:42.746Z,3.5
2017-10-06T10:45:44.372Z,3.2
2017-10-06T10:46:46.000Z,3.1
2017-10-06T10:47:47.624Z,6.9
2017-10-06T10:48:49.251Z,5.6
2017-10-06T10:49:50.875Z,4.4
2017-10-06T10:50:52.501Z,3.2
2017-10-06T10:51:54.127Z,4.3
2017-10-06T10:52:55.756Z,4.4
2017-10-06T10:53:57.381Z,5.1
2017-10-06T10:54:59.007Z,3.5
2017-10-06T10:56:00.633Z,6.2
2017-10-06T10:57:02.259Z,2.8
2017-10-06T10:58:03.889Z,4.1
2017-10-06T10:59:05.513Z,3.3
2017-10-06T11:00:07.146Z,4.1
2017-10-06T11:01:08.768Z,6.7
2017-10-06T11:02:10.393Z,2.6
2017-10-06T11:03:12.020Z,4.3
2017-10-06T11:04:13.643Z,3.4
2017-10-06T11:05:15.271Z,4.0
2017-10-06T11:06:16.899Z,3.3
2017-10-06T11:07:18.529Z,5.5
2017-10-06T11:08:20.155Z,3.7
2017-10-06T11:09:21.789Z,3.1
2017-10-06T11:10:23.416Z,5.7
2017-10-06T11:11:25.042Z,3.4
2017-10-06T11:12:26.671Z,3.5
2017-10-06T11:13:28.318Z,5.7
2017-10-06T11:14:29.945Z,4.7
2017-10-06T11:15:31.572Z,4.8
2017-10-06T11:16:33.199Z,3.2
2017-10-06T11:17:34.823Z,5.4
2017-10-06T11:18:36.451Z,4.2
2017-10-06T11:19:38.077Z,4.8
2017-10-06T11:20:39.707Z,5.2
2017-10-06T11:21:41.334Z,4.8
2017-10-06T11:22:42.959Z,3.6
2017-10-06T11:23:44.584Z,5.6
2017-10-06T11:24:46.210Z,2.6
2017-10-06T11:25:47.838Z,4.1
2017-10-06T11:26:49.463Z,6.6
2017-10-06T11:27:51.092Z,4.3
2017-10-06T11:28:52.721Z,3.8
2017-10-06T11:29:54.350Z,1.8
2017-10-06T11:30:55.978Z,2.7
2017-10-06T11:31:57.605Z,4.3
2017-10-06T11:32:59.231Z,2.7
2017-10-06T11:34:00.858Z,3.6
2017-10-06T11:35:02.491Z,2.8
2017-10-06T11:36:04.117Z,3.7
2017-10-06T11:37:05.745Z,4.0
2017-10-06T11:38:07.371Z,3.7
2017-10-06T11:39:09.004Z,3.0
2017-10-06T11:40:10.624Z,4.9
2017-10-06T11:41:12.252Z,4.1
2017-10-06T11:42:13.883Z,3.1
2017-10-06T11:43:15.511Z,2.3
2017-10-06T11:44:17.138Z,2.5
2017-10-06T11:45:18.764Z,4.9
2017-10-06T11:46:20.393Z,2.9
2017-10-06T11:47:22.020Z,2.9
2017-10-06T11:48:23.648Z,3.1
2017-10-06T11:49:25.273Z,4.6
2017-10-06T11:50:26.901Z,4.7
2017-10-06T11:51:28.527Z,3.8
2017-10-06T11:52:30.153Z,6.1
2017-10-06T11:53:31.776Z,6.2
2017-10-06T11:54:33.402Z,3.3
2017-10-06T11:55:35.027Z,3.3
2017-10-06T11:56:36.657Z,5.2
2017-10-06T11:57:38.290Z,4.5
2017-10-06T11:58:39.913Z,3.1
2017-10-06T11:59:41.657Z,7.3
2017-10-06T12:00:43.290Z,4.4
2017-10-06T12:01:44.919Z,4.7
2017-10-06T12:02:46.546Z,5.0
2017-10-06T12:03:48.177Z,5.6
2017-10-06T12:04:49.807Z,3.0
2017-10-06T12:05:51.439Z,5.5
2017-10-06T12:06:53.067Z,4.3
2017-10-06T12:07:54.697Z,3.2
2017-10-06T12:08:56.325Z,2.4
2017-10-06T12:09:57.955Z,3.3
2017-10-06T12:10:59.583Z,3.5
2017-10-06T12:12:01.216Z,2.2
2017-10-06T12:13:02.847Z,3.3
2017-10-06T12:14:04.487Z,2.5
2017-10-06T12:15:06.117Z,2.8
2017-10-06T12:16:07.750Z,2.5
2017-10-06T12:17:09.386Z,1.8
2017-10-06T12:18:11.020Z,4.3
2017-10-06T12:19:12.655Z,2.3
2017-10-06T12:20:14.289Z,4.1
2017-10-06T12:21:15.924Z,3.4
2017-10-06T12:22:20.309Z,2.0
2017-10-06T12:23:21.700Z,3.5
2017-10-06T12:24:23.339Z,4.4
2017-10-06T12:25:24.975Z,3.4
2017-10-06T12:26:26.875Z,2.4
2017-10-06T12:27:29.016Z,3.0
2017-10-06T12:28:30.630Z,3.9
2017-10-06T12:29:32.270Z,2.6
2017-10-06T12:30:33.906Z,2.5
2017-10-06T12:31:35.548Z,2.7
2017-10-06T12:32:37.188Z,2.3
2017-10-06T12:33:40.873Z,3.3
2017-10-06T12:34:45.679Z,3.7
2017-10-06T12:35:47.321Z,2.8
2017-10-06T12:36:48.957Z,4.1
2017-10-06T12:37:50.595Z,3.0
2017-10-06T12:38:52.232Z,2.3
2017-10-06T12:39:57.557Z,2.9
2017-10-06T12:40:59.187Z,3.8
2017-10-06T12:42:00.997Z,2.1
2017-10-06T12:43:02.635Z,3.5
2017-10-06T12:44:04.273Z,4.5
2017-10-06T12:45:05.902Z,4.2
2017-10-06T12:46:07.533Z,4.7
2017-10-06T12:47:09.283Z,3.8
2017-10-06T12:48:10.914Z,3.1
2017-10-06T12:49:12.583Z,5.6
2017-10-06T12:50:14.215Z,2.6
2017-10-06T12:51:15.846Z,4.0
2017-10-06T12:52:17.716Z,3.6
2017-10-06T12:53:19.061Z,2.5
2017-10-06T12:54:20.694Z,2.0
2017-10-06T12:55:22.329Z,3.0
2017-10-06T12:56:23.977Z,2.0
2017-10-06T12:57:25.628Z,2.9
2017-10-06T12:58:27.258Z,3.0
2017-10-06T12:59:28.889Z,2.4
2017-10-06T13:00:30.522Z,1.9
2017-10-06T13:01:32.156Z,2.8
2017-10-06T13:02:33.788Z,1.8
2017-10-06T13:03:35.431Z,2.0
2017-10-06T13:04:37.249Z,2.5
2017-10-06T13:05:38.879Z,2.0
2017-10-06T13:06:40.508Z,4.2
2017-10-06T13:07:42.139Z,3.5
2017-10-06T13:08:43.772Z,3.3
2017-10-06T13:09:45.400Z,4.3
2017-10-06T13:10:47.027Z,3.9
2017-10-06T13:11:48.655Z,6.0
2017-10-06T13:12:50.286Z,4.0
2017-10-06T13:13:51.934Z,4.9
2017-10-06T13:14:53.563Z,4.0
2017-10-06T13:15:55.191Z,6.0
2017-10-06T13:16:56.889Z,4.1
2017-10-06T13:17:58.545Z,4.9
2017-10-06T13:19:00.175Z,6.1
2017-10-06T13:20:01.868Z,3.6
2017-10-06T13:21:03.497Z,3.2
2017-10-06T13:22:05.131Z,4.0
2017-10-06T13:23:06.936Z,3.1
2017-10-06T13:24:08.571Z,2.8
2017-10-06T13:25:10.200Z,3.6
2017-10-06T13:26:11.835Z,6.6
2017-10-06T13:27:13.464Z,4.4
2017-10-06T13:28:15.097Z,4.2
2017-10-06T13:29:16.731Z,4.2
2017-10-06T13:30:18.367Z,4.9
2017-10-06T13:31:20.001Z,3.9
2017-10-06T13:32:21.660Z,4.2
2017-10-06T13:33:23.296Z,3.1
2017-10-06T13:34:24.927Z,2.4
2017-10-06T13:35:26.559Z,4.3
2017-10-06T13:36:28.194Z,3.9
2017-10-06T13:37:29.829Z,4.7
2017-10-06T13:38:31.467Z,5.7
2017-10-06T13:39:33.093Z,3.1
2017-10-06T13:40:34.726Z,4.1
2017-10-06T13:41:36.359Z,3.7
2017-10-06T13:42:38.128Z,7.9
2017-10-06T13:43:39.763Z,3.3
2017-10-06T13:44:41.396Z,3.5
2017-10-06T13:45:43.028Z,3.8
2017-10-06T13:46:44.659Z,2.7
2017-10-06T13:47:46.289Z,3.2
2017-10-06T13:48:47.927Z,3.2
2017-10-06T13:49:49.553Z,4.2
2017-10-06T13:50:51.183Z,3.0
2017-10-06T13:51:52.814Z,3.4
2017-10-06T13:52:54.445Z,4.9
2017-10-06T13:53:56.108Z,4.6
2017-10-06T13:54:57.734Z,5.9
2017-10-06T13:55:59.360Z,6.4
2017-10-06T13:57:00.990Z,4.5
2017-10-06T13:58:02.620Z,3.4
2017-10-06T13:59:06.056Z,4.8
2017-10-06T14:00:07.687Z,4.4
2017-10-06T14:01:09.322Z,6.9
2017-10-06T14:02:10.946Z,3.6
2017-10-06T14:03:12.572Z,6.6
2017-10-06T14:04:14.824Z,2.9
2017-10-06T14:05:16.473Z,5.7
2017-10-06T14:06:18.474Z,4.0